sensor_id;sensor_type;location;lat;lon;timestamp;P1;durP1;ratioP1;P2;durP2;ratioP2
179;SDS011;78;48.788;9.010;2023-04-03T00:00:32;19.37;;;5.47;;
179;SDS011;78;48.788;9.010;2023-04-03T00:02:58;20.60;;;6.20;;
179;SDS011;78;48.788;9.010;2023-04-03T00:05:24;22.73;;;6.30;;
179;SDS011;78;48.788;9.010;2023-04-03T00:07:51;22.97;;;6.20;;
179;SDS011;78;48.788;9.010;2023-04-03T00:10:17;22.40;;;6.20;;
179;SDS011;78;48.788;9.010;2023-04-03T00:12:43;21.23;;;6.60;;
179;SDS011;78;48.788;9.010;2023-04-03T00:15:09;22.97;;;6.10;;
179;SDS011;78;48.788;9.010;2023-04-03T00:17:35;24.93;;;6.40;;
179;SDS011;78;48.788;9.010;2023-04-03T00:20:01;28.03;;;7.00;;
179;SDS011;78;48.788;9.010;2023-04-03T00:22:27;20.40;;;6.60;;
179;SDS011;78;48.788;9.010;2023-04-03T00:24:53;22.00;;;6.37;;
179;SDS011;78;48.788;9.010;2023-04-03T00:27:19;22.10;;;5.80;;
179;SDS011;78;48.788;9.010;2023-04-03T00:29:45;20.50;;;5.93;;
179;SDS011;78;48.788;9.010;2023-04-03T00:32:11;24.07;;;6.77;;
179;SDS011;78;48.788;9.010;2023-04-03T00:34:37;22.60;;;6.17;;
179;SDS011;78;48.788;9.010;2023-04-03T00:37:03;21.20;;;6.30;;
179;SDS011;78;48.788;9.010;2023-04-03T00:39:29;20.40;;;6.40;;
179;SDS011;78;48.788;9.010;2023-04-03T00:41:56;22.07;;;7.30;;
179;SDS011;78;48.788;9.010;2023-04-03T00:45:22;21.83;;;6.50;;
179;SDS011;78;48.788;9.010;2023-04-03T00:47:12;24.47;;;6.60;;
179;SDS011;78;48.788;9.010;2023-04-03T00:49:38;21.93;;;6.10;;
179;SDS011;78;48.788;9.010;2023-04-03T00:52:05;19.60;;;5.50;;
179;SDS011;78;48.788;9.010;2023-04-03T00:54:32;19.83;;;6.03;;
179;SDS011;78;48.788;9.010;2023-04-03T00:57:00;21.27;;;6.10;;
179;SDS011;78;48.788;9.010;2023-04-03T00:59:27;22.13;;;6.40;;
179;SDS011;78;48.788;9.010;2023-04-03T01:01:56;23.17;;;6.93;;
179;SDS011;78;48.788;9.010;2023-04-03T01:04:29;23.77;;;5.90;;
179;SDS011;78;48.788;9.010;2023-04-03T01:06:56;23.70;;;6.33;;
179;SDS011;78;48.788;9.010;2023-04-03T01:09:24;24.70;;;6.80;;
179;SDS011;78;48.788;9.010;2023-04-03T01:11:51;22.43;;;6.63;;
179;SDS011;78;48.788;9.010;2023-04-03T01:14:18;21.67;;;6.40;;
179;SDS011;78;48.788;9.010;2023-04-03T01:16:53;21.80;;;6.80;;
179;SDS011;78;48.788;9.010;2023-04-03T01:19:19;25.40;;;7.20;;
179;SDS011;78;48.788;9.010;2023-04-03T01:21:52;20.57;;;6.40;;
179;SDS011;78;48.788;9.010;2023-04-03T01:26:55;21.33;;;6.70;;
179;SDS011;78;48.788;9.010;2023-04-03T01:29:21;26.30;;;6.63;;
179;SDS011;78;48.788;9.010;2023-04-03T01:31:51;23.70;;;7.40;;
179;SDS011;78;48.788;9.010;2023-04-03T01:34:17;20.20;;;6.07;;
179;SDS011;78;48.788;9.010;2023-04-03T01:36:43;22.80;;;6.43;;
179;SDS011;78;48.788;9.010;2023-04-03T01:39:10;23.63;;;6.30;;
179;SDS011;78;48.788;9.010;2023-04-03T01:41:36;23.90;;;7.03;;
179;SDS011;78;48.788;9.010;2023-04-03T01:44:02;20.37;;;6.27;;
179;SDS011;78;48.788;9.010;2023-04-03T01:46:29;22.07;;;6.50;;
179;SDS011;78;48.788;9.010;2023-04-03T01:48:55;20.93;;;6.30;;
179;SDS011;78;48.788;9.010;2023-04-03T01:51:21;19.70;;;6.13;;
179;SDS011;78;48.788;9.010;2023-04-03T01:53:47;23.97;;;7.03;;
179;SDS011;78;48.788;9.010;2023-04-03T01:56:13;25.00;;;7.20;;
179;SDS011;78;48.788;9.010;2023-04-03T01:58:39;21.53;;;6.73;;
179;SDS011;78;48.788;9.010;2023-04-03T02:01:05;22.40;;;6.77;;
179;SDS011;78;48.788;9.010;2023-04-03T02:03:31;20.97;;;6.53;;
179;SDS011;78;48.788;9.010;2023-04-03T02:05:57;25.50;;;7.23;;
179;SDS011;78;48.788;9.010;2023-04-03T02:08:23;21.40;;;6.20;;
179;SDS011;78;48.788;9.010;2023-04-03T02:10:50;22.50;;;6.50;;
179;SDS011;78;48.788;9.010;2023-04-03T02:13:16;23.87;;;7.10;;
179;SDS011;78;48.788;9.010;2023-04-03T02:15:42;22.60;;;6.90;;
179;SDS011;78;48.788;9.010;2023-04-03T02:18:08;20.67;;;6.53;;
179;SDS011;78;48.788;9.010;2023-04-03T02:20:35;24.57;;;7.10;;
179;SDS011;78;48.788;9.010;2023-04-03T02:23:01;23.70;;;6.73;;
179;SDS011;78;48.788;9.010;2023-04-03T02:25:27;23.87;;;6.57;;
179;SDS011;78;48.788;9.010;2023-04-03T02:27:53;32.87;;;6.67;;
179;SDS011;78;48.788;9.010;2023-04-03T02:30:19;23.13;;;6.30;;
179;SDS011;78;48.788;9.010;2023-04-03T02:32:45;20.40;;;6.50;;
179;SDS011;78;48.788;9.010;2023-04-03T02:35:11;21.87;;;6.67;;
179;SDS011;78;48.788;9.010;2023-04-03T02:37:37;20.87;;;6.93;;
179;SDS011;78;48.788;9.010;2023-04-03T02:40:03;21.87;;;6.80;;
179;SDS011;78;48.788;9.010;2023-04-03T02:42:30;23.23;;;7.17;;
179;SDS011;78;48.788;9.010;2023-04-03T02:44:56;20.27;;;6.57;;
179;SDS011;78;48.788;9.010;2023-04-03T02:47:23;22.47;;;7.10;;
179;SDS011;78;48.788;9.010;2023-04-03T02:49:49;21.70;;;6.77;;
179;SDS011;78;48.788;9.010;2023-04-03T02:52:15;21.97;;;6.80;;
179;SDS011;78;48.788;9.010;2023-04-03T02:54:41;22.43;;;6.50;;
179;SDS011;78;48.788;9.010;2023-04-03T02:57:07;23.43;;;7.70;;
179;SDS011;78;48.788;9.010;2023-04-03T02:59:34;22.07;;;6.70;;
179;SDS011;78;48.788;9.010;2023-04-03T03:02:00;21.10;;;6.77;;
179;SDS011;78;48.788;9.010;2023-04-03T03:04:26;20.80;;;6.00;;
179;SDS011;78;48.788;9.010;2023-04-03T03:06:52;22.70;;;6.57;;
179;SDS011;78;48.788;9.010;2023-04-03T03:09:18;21.03;;;6.60;;
179;SDS011;78;48.788;9.010;2023-04-03T03:11:44;26.67;;;7.90;;
179;SDS011;78;48.788;9.010;2023-04-03T03:14:10;26.10;;;7.20;;
179;SDS011;78;48.788;9.010;2023-04-03T03:16:36;22.40;;;6.97;;
179;SDS011;78;48.788;9.010;2023-04-03T03:19:02;26.40;;;7.20;;
179;SDS011;78;48.788;9.010;2023-04-03T03:21:29;21.37;;;6.90;;
179;SDS011;78;48.788;9.010;2023-04-03T03:23:55;21.20;;;6.63;;
179;SDS011;78;48.788;9.010;2023-04-03T03:26:21;22.00;;;6.60;;
179;SDS011;78;48.788;9.010;2023-04-03T03:28:47;21.53;;;6.07;;
179;SDS011;78;48.788;9.010;2023-04-03T03:31:13;20.77;;;6.57;;
179;SDS011;78;48.788;9.010;2023-04-03T03:33:40;21.90;;;6.80;;
179;SDS011;78;48.788;9.010;2023-04-03T03:36:06;20.20;;;6.40;;
179;SDS011;78;48.788;9.010;2023-04-03T03:38:32;22.57;;;6.80;;
179;SDS011;78;48.788;9.010;2023-04-03T03:40:58;20.13;;;6.03;;
179;SDS011;78;48.788;9.010;2023-04-03T03:43:24;23.27;;;6.50;;
179;SDS011;78;48.788;9.010;2023-04-03T03:45:51;19.93;;;6.03;;
179;SDS011;78;48.788;9.010;2023-04-03T03:48:17;22.87;;;6.40;;
179;SDS011;78;48.788;9.010;2023-04-03T03:50:43;20.87;;;6.50;;
179;SDS011;78;48.788;9.010;2023-04-03T03:53:09;20.67;;;6.20;;
179;SDS011;78;48.788;9.010;2023-04-03T03:55:35;22.43;;;5.93;;
179;SDS011;78;48.788;9.010;2023-04-03T03:58:01;23.37;;;6.50;;
179;SDS011;78;48.788;9.010;2023-04-03T04:00:28;20.47;;;6.10;;
179;SDS011;78;48.788;9.010;2023-04-03T04:02:54;21.13;;;6.10;;
179;SDS011;78;48.788;9.010;2023-04-03T04:05:20;19.57;;;5.83;;
179;SDS011;78;48.788;9.010;2023-04-03T04:07:46;19.47;;;5.43;;
179;SDS011;78;48.788;9.010;2023-04-03T04:10:12;21.30;;;5.97;;
179;SDS011;78;48.788;9.010;2023-04-03T04:12:39;20.40;;;6.07;;
179;SDS011;78;48.788;9.010;2023-04-03T04:15:05;19.90;;;6.07;;
179;SDS011;78;48.788;9.010;2023-04-03T04:17:31;18.93;;;5.80;;
179;SDS011;78;48.788;9.010;2023-04-03T04:19:57;21.37;;;6.30;;
179;SDS011;78;48.788;9.010;2023-04-03T04:22:25;20.73;;;6.17;;
179;SDS011;78;48.788;9.010;2023-04-03T04:24:51;21.60;;;6.10;;
179;SDS011;78;48.788;9.010;2023-04-03T04:27:17;20.27;;;6.57;;
179;SDS011;78;48.788;9.010;2023-04-03T04:29:43;22.87;;;6.57;;
179;SDS011;78;48.788;9.010;2023-04-03T04:32:10;24.43;;;6.93;;
179;SDS011;78;48.788;9.010;2023-04-03T04:34:36;21.53;;;6.60;;
179;SDS011;78;48.788;9.010;2023-04-03T04:37:02;20.37;;;6.33;;
179;SDS011;78;48.788;9.010;2023-04-03T04:39:28;20.47;;;6.30;;
179;SDS011;78;48.788;9.010;2023-04-03T04:41:55;20.43;;;6.60;;
179;SDS011;78;48.788;9.010;2023-04-03T04:44:21;22.07;;;6.47;;
179;SDS011;78;48.788;9.010;2023-04-03T04:46:47;21.83;;;6.30;;
179;SDS011;78;48.788;9.010;2023-04-03T04:49:13;21.17;;;6.23;;
179;SDS011;78;48.788;9.010;2023-04-03T04:51:39;20.27;;;5.87;;
179;SDS011;78;48.788;9.010;2023-04-03T04:54:05;19.30;;;6.07;;
179;SDS011;78;48.788;9.010;2023-04-03T04:56:32;20.20;;;6.13;;
179;SDS011;78;48.788;9.010;2023-04-03T04:58:58;20.63;;;6.20;;
179;SDS011;78;48.788;9.010;2023-04-03T05:01:24;20.37;;;6.20;;
179;SDS011;78;48.788;9.010;2023-04-03T05:03:51;22.53;;;7.07;;
179;SDS011;78;48.788;9.010;2023-04-03T05:06:18;19.67;;;6.30;;
179;SDS011;78;48.788;9.010;2023-04-03T05:08:44;20.23;;;6.07;;
179;SDS011;78;48.788;9.010;2023-04-03T05:11:10;20.67;;;6.50;;
179;SDS011;78;48.788;9.010;2023-04-03T05:13:36;24.50;;;6.80;;
179;SDS011;78;48.788;9.010;2023-04-03T05:16:02;23.63;;;7.00;;
179;SDS011;78;48.788;9.010;2023-04-03T05:18:29;21.57;;;6.80;;
179;SDS011;78;48.788;9.010;2023-04-03T05:20:55;19.80;;;6.00;;
179;SDS011;78;48.788;9.010;2023-04-03T05:23:23;20.77;;;6.20;;
179;SDS011;78;48.788;9.010;2023-04-03T05:25:49;19.97;;;5.80;;
179;SDS011;78;48.788;9.010;2023-04-03T05:28:16;25.00;;;6.03;;
179;SDS011;78;48.788;9.010;2023-04-03T05:30:42;19.13;;;5.97;;
179;SDS011;78;48.788;9.010;2023-04-03T05:33:08;21.60;;;6.50;;
179;SDS011;78;48.788;9.010;2023-04-03T05:35:35;20.83;;;6.20;;
179;SDS011;78;48.788;9.010;2023-04-03T05:38:04;20.10;;;5.73;;
179;SDS011;78;48.788;9.010;2023-04-03T05:40:30;21.40;;;6.00;;
179;SDS011;78;48.788;9.010;2023-04-03T05:42:57;23.77;;;6.07;;
179;SDS011;78;48.788;9.010;2023-04-03T05:45:25;19.63;;;6.03;;
179;SDS011;78;48.788;9.010;2023-04-03T05:47:51;21.73;;;5.93;;
179;SDS011;78;48.788;9.010;2023-04-03T05:50:17;21.40;;;6.80;;
179;SDS011;78;48.788;9.010;2023-04-03T05:52:44;21.10;;;6.27;;
179;SDS011;78;48.788;9.010;2023-04-03T05:55:11;23.73;;;6.70;;
179;SDS011;78;48.788;9.010;2023-04-03T05:57:36;21.00;;;6.20;;
179;SDS011;78;48.788;9.010;2023-04-03T06:00:05;23.40;;;6.30;;
179;SDS011;78;48.788;9.010;2023-04-03T06:02:32;20.83;;;6.30;;
179;SDS011;78;48.788;9.010;2023-04-03T06:04:57;20.23;;;5.83;;
179;SDS011;78;48.788;9.010;2023-04-03T06:07:24;20.93;;;6.37;;
179;SDS011;78;48.788;9.010;2023-04-03T06:09:53;24.83;;;6.33;;
179;SDS011;78;48.788;9.010;2023-04-03T06:12:20;20.83;;;6.30;;
179;SDS011;78;48.788;9.010;2023-04-03T06:14:47;21.60;;;6.40;;
179;SDS011;78;48.788;9.010;2023-04-03T06:17:13;21.93;;;6.83;;
179;SDS011;78;48.788;9.010;2023-04-03T06:19:40;24.33;;;6.70;;
179;SDS011;78;48.788;9.010;2023-04-03T06:22:06;23.10;;;6.83;;
179;SDS011;78;48.788;9.010;2023-04-03T06:24:32;22.40;;;6.17;;
179;SDS011;78;48.788;9.010;2023-04-03T06:26:59;22.43;;;6.47;;
179;SDS011;78;48.788;9.010;2023-04-03T06:29:25;19.83;;;5.90;;
179;SDS011;78;48.788;9.010;2023-04-03T06:31:52;18.57;;;5.63;;
179;SDS011;78;48.788;9.010;2023-04-03T06:34:18;20.20;;;5.90;;
179;SDS011;78;48.788;9.010;2023-04-03T06:36:45;18.80;;;5.60;;
179;SDS011;78;48.788;9.010;2023-04-03T06:39:12;22.33;;;6.00;;
179;SDS011;78;48.788;9.010;2023-04-03T06:41:39;23.07;;;6.00;;
179;SDS011;78;48.788;9.010;2023-04-03T06:44:05;21.53;;;5.90;;
179;SDS011;78;48.788;9.010;2023-04-03T06:46:31;25.00;;;5.73;;
179;SDS011;78;48.788;9.010;2023-04-03T06:48:57;19.17;;;5.40;;
179;SDS011;78;48.788;9.010;2023-04-03T06:51:24;21.33;;;5.63;;
179;SDS011;78;48.788;9.010;2023-04-03T06:53:52;19.70;;;5.87;;
179;SDS011;78;48.788;9.010;2023-04-03T06:56:18;20.37;;;5.60;;
179;SDS011;78;48.788;9.010;2023-04-03T06:58:45;21.80;;;6.50;;
179;SDS011;78;48.788;9.010;2023-04-03T07:01:12;25.43;;;5.90;;
179;SDS011;78;48.788;9.010;2023-04-03T07:03:38;20.57;;;5.77;;
179;SDS011;78;48.788;9.010;2023-04-03T07:06:05;31.20;;;6.27;;
179;SDS011;78;48.788;9.010;2023-04-03T07:08:32;20.63;;;6.10;;
179;SDS011;78;48.788;9.010;2023-04-03T07:10:58;21.47;;;5.67;;
179;SDS011;78;48.788;9.010;2023-04-03T07:13:24;22.90;;;6.50;;
179;SDS011;78;48.788;9.010;2023-04-03T07:15:51;20.60;;;6.17;;
179;SDS011;78;48.788;9.010;2023-04-03T07:18:17;23.10;;;6.27;;
179;SDS011;78;48.788;9.010;2023-04-03T07:20:43;30.00;;;6.20;;
179;SDS011;78;48.788;9.010;2023-04-03T07:23:09;21.43;;;6.03;;
179;SDS011;78;48.788;9.010;2023-04-03T07:25:35;21.20;;;6.00;;
179;SDS011;78;48.788;9.010;2023-04-03T07:28:02;20.90;;;5.70;;
179;SDS011;78;48.788;9.010;2023-04-03T07:30:28;20.70;;;6.47;;
179;SDS011;78;48.788;9.010;2023-04-03T07:32:54;22.97;;;6.13;;
179;SDS011;78;48.788;9.010;2023-04-03T07:35:21;21.40;;;6.07;;
179;SDS011;78;48.788;9.010;2023-04-03T07:37:47;23.40;;;6.03;;
179;SDS011;78;48.788;9.010;2023-04-03T07:40:13;21.27;;;6.47;;
179;SDS011;78;48.788;9.010;2023-04-03T07:42:39;21.33;;;6.70;;
179;SDS011;78;48.788;9.010;2023-04-03T07:45:05;24.10;;;6.17;;
179;SDS011;78;48.788;9.010;2023-04-03T07:47:31;20.50;;;6.03;;
179;SDS011;78;48.788;9.010;2023-04-03T07:49:57;21.83;;;6.10;;
179;SDS011;78;48.788;9.010;2023-04-03T07:52:23;20.50;;;6.60;;
179;SDS011;78;48.788;9.010;2023-04-03T07:54:50;22.10;;;6.30;;
179;SDS011;78;48.788;9.010;2023-04-03T07:57:17;22.30;;;6.23;;
179;SDS011;78;48.788;9.010;2023-04-03T07:59:43;20.53;;;5.73;;
179;SDS011;78;48.788;9.010;2023-04-03T08:02:09;20.97;;;6.33;;
179;SDS011;78;48.788;9.010;2023-04-03T08:04:35;19.63;;;5.70;;
179;SDS011;78;48.788;9.010;2023-04-03T08:07:01;19.97;;;5.70;;
179;SDS011;78;48.788;9.010;2023-04-03T08:09:27;23.13;;;6.23;;
179;SDS011;78;48.788;9.010;2023-04-03T08:11:53;20.57;;;6.00;;
179;SDS011;78;48.788;9.010;2023-04-03T08:14:20;23.37;;;6.73;;
179;SDS011;78;48.788;9.010;2023-04-03T08:16:46;19.70;;;6.20;;
179;SDS011;78;48.788;9.010;2023-04-03T08:19:12;20.50;;;6.43;;
179;SDS011;78;48.788;9.010;2023-04-03T08:21:41;21.53;;;6.07;;
179;SDS011;78;48.788;9.010;2023-04-03T08:24:07;22.87;;;6.20;;
179;SDS011;78;48.788;9.010;2023-04-03T08:26:34;20.90;;;6.03;;
179;SDS011;78;48.788;9.010;2023-04-03T08:29:00;18.33;;;5.67;;
179;SDS011;78;48.788;9.010;2023-04-03T08:31:26;21.27;;;6.30;;
179;SDS011;78;48.788;9.010;2023-04-03T08:33:52;31.93;;;6.70;;
179;SDS011;78;48.788;9.010;2023-04-03T08:36:22;21.47;;;6.37;;
179;SDS011;78;48.788;9.010;2023-04-03T08:38:49;21.97;;;6.40;;
179;SDS011;78;48.788;9.010;2023-04-03T08:43:58;20.67;;;6.13;;
179;SDS011;78;48.788;9.010;2023-04-03T08:46:52;19.07;;;5.80;;
179;SDS011;78;48.788;9.010;2023-04-03T08:49:24;19.70;;;5.80;;
179;SDS011;78;48.788;9.010;2023-04-03T08:51:52;20.33;;;6.80;;
179;SDS011;78;48.788;9.010;2023-04-03T08:54:27;21.40;;;6.67;;
179;SDS011;78;48.788;9.010;2023-04-03T08:56:53;23.13;;;6.67;;
179;SDS011;78;48.788;9.010;2023-04-03T08:59:24;21.23;;;6.10;;
179;SDS011;78;48.788;9.010;2023-04-03T09:01:52;20.93;;;5.70;;
179;SDS011;78;48.788;9.010;2023-04-03T09:04:18;20.50;;;6.23;;
179;SDS011;78;48.788;9.010;2023-04-03T09:06:49;28.33;;;6.00;;
179;SDS011;78;48.788;9.010;2023-04-03T09:14:14;24.70;;;6.40;;
179;SDS011;78;48.788;9.010;2023-04-03T09:21:38;20.37;;;6.40;;
179;SDS011;78;48.788;9.010;2023-04-03T09:24:07;21.37;;;6.00;;
179;SDS011;78;48.788;9.010;2023-04-03T09:29:08;22.00;;;6.17;;
179;SDS011;78;48.788;9.010;2023-04-03T09:31:39;20.50;;;5.90;;
179;SDS011;78;48.788;9.010;2023-04-03T09:34:06;21.47;;;6.57;;
179;SDS011;78;48.788;9.010;2023-04-03T09:37:22;21.57;;;6.23;;
179;SDS011;78;48.788;9.010;2023-04-03T09:39:28;21.27;;;6.00;;
179;SDS011;78;48.788;9.010;2023-04-03T09:44:35;20.50;;;5.50;;
179;SDS011;78;48.788;9.010;2023-04-03T09:50:15;19.17;;;5.70;;
179;SDS011;78;48.788;9.010;2023-04-03T09:52:45;20.70;;;5.57;;
179;SDS011;78;48.788;9.010;2023-04-03T09:55:15;22.23;;;5.80;;
179;SDS011;78;48.788;9.010;2023-04-03T09:57:42;22.33;;;5.50;;
179;SDS011;78;48.788;9.010;2023-04-03T10:00:21;20.70;;;5.60;;
179;SDS011;78;48.788;9.010;2023-04-03T10:02:49;19.60;;;5.70;;
179;SDS011;78;48.788;9.010;2023-04-03T10:08:07;27.90;;;5.80;;
179;SDS011;78;48.788;9.010;2023-04-03T10:10:34;22.47;;;6.23;;
179;SDS011;78;48.788;9.010;2023-04-03T10:13:19;20.50;;;5.60;;
179;SDS011;78;48.788;9.010;2023-04-03T10:21:05;19.83;;;5.13;;
179;SDS011;78;48.788;9.010;2023-04-03T10:23:33;20.90;;;5.60;;
179;SDS011;78;48.788;9.010;2023-04-03T10:28:31;18.60;;;5.20;;
179;SDS011;78;48.788;9.010;2023-04-03T10:38:58;19.80;;;4.80;;
179;SDS011;78;48.788;9.010;2023-04-03T10:43:59;21.00;;;4.53;;
179;SDS011;78;48.788;9.010;2023-04-03T11:01:33;20.00;;;4.60;;
179;SDS011;78;48.788;9.010;2023-04-03T11:04:00;21.13;;;5.10;;
179;SDS011;78;48.788;9.010;2023-04-03T11:06:31;18.60;;;4.70;;
179;SDS011;78;48.788;9.010;2023-04-03T11:09:03;24.10;;;5.40;;
179;SDS011;78;48.788;9.010;2023-04-03T11:11:35;20.17;;;5.23;;
179;SDS011;78;48.788;9.010;2023-04-03T11:16:28;18.70;;;4.93;;
179;SDS011;78;48.788;9.010;2023-04-03T11:18:56;18.90;;;4.67;;
179;SDS011;78;48.788;9.010;2023-04-03T11:21:29;19.90;;;4.73;;
179;SDS011;78;48.788;9.010;2023-04-03T11:23:56;17.80;;;4.73;;
179;SDS011;78;48.788;9.010;2023-04-03T11:26:24;18.50;;;5.03;;
179;SDS011;78;48.788;9.010;2023-04-03T11:28:55;21.17;;;4.90;;
179;SDS011;78;48.788;9.010;2023-04-03T11:36:33;19.20;;;4.80;;
179;SDS011;78;48.788;9.010;2023-04-03T11:39:02;18.90;;;4.50;;
179;SDS011;78;48.788;9.010;2023-04-03T11:41:32;20.93;;;5.03;;
179;SDS011;78;48.788;9.010;2023-04-03T11:44:03;16.10;;;4.10;;
179;SDS011;78;48.788;9.010;2023-04-03T11:52:01;17.80;;;4.50;;
179;SDS011;78;48.788;9.010;2023-04-03T11:54:35;20.97;;;4.63;;
179;SDS011;78;48.788;9.010;2023-04-03T11:57:22;21.20;;;4.60;;
179;SDS011;78;48.788;9.010;2023-04-03T11:59:47;18.00;;;4.67;;
179;SDS011;78;48.788;9.010;2023-04-03T12:02:34;20.40;;;4.77;;
179;SDS011;78;48.788;9.010;2023-04-03T12:08:10;19.80;;;4.77;;
179;SDS011;78;48.788;9.010;2023-04-03T12:10:31;18.43;;;4.50;;
179;SDS011;78;48.788;9.010;2023-04-03T12:12:58;20.37;;;4.57;;
179;SDS011;78;48.788;9.010;2023-04-03T12:20:56;19.43;;;4.70;;
179;SDS011;78;48.788;9.010;2023-04-03T12:23:32;18.67;;;4.40;;
179;SDS011;78;48.788;9.010;2023-04-03T12:26:04;20.30;;;4.50;;
179;SDS011;78;48.788;9.010;2023-04-03T12:28:36;18.90;;;4.30;;
179;SDS011;78;48.788;9.010;2023-04-03T12:31:04;18.50;;;4.23;;
179;SDS011;78;48.788;9.010;2023-04-03T12:38:37;17.67;;;4.27;;
179;SDS011;78;48.788;9.010;2023-04-03T12:46:23;18.00;;;4.13;;
179;SDS011;78;48.788;9.010;2023-04-03T12:48:53;16.60;;;3.90;;
179;SDS011;78;48.788;9.010;2023-04-03T12:51:27;17.27;;;4.20;;
179;SDS011;78;48.788;9.010;2023-04-03T12:54:00;16.97;;;4.07;;
179;SDS011;78;48.788;9.010;2023-04-03T12:56:29;17.27;;;4.00;;
179;SDS011;78;48.788;9.010;2023-04-03T12:59:12;24.13;;;4.30;;
179;SDS011;78;48.788;9.010;2023-04-03T13:01:39;16.67;;;4.00;;
179;SDS011;78;48.788;9.010;2023-04-03T13:04:05;16.80;;;3.90;;
179;SDS011;78;48.788;9.010;2023-04-03T13:06:39;18.90;;;4.00;;
179;SDS011;78;48.788;9.010;2023-04-03T13:09:06;19.63;;;4.70;;
179;SDS011;78;48.788;9.010;2023-04-03T13:11:33;19.30;;;4.80;;
179;SDS011;78;48.788;9.010;2023-04-03T13:14:02;17.07;;;4.20;;
179;SDS011;78;48.788;9.010;2023-04-03T13:16:30;23.20;;;4.67;;
179;SDS011;78;48.788;9.010;2023-04-03T13:18:56;18.10;;;4.63;;
179;SDS011;78;48.788;9.010;2023-04-03T13:21:24;20.33;;;4.77;;
179;SDS011;78;48.788;9.010;2023-04-03T13:23:52;20.37;;;4.33;;
179;SDS011;78;48.788;9.010;2023-04-03T13:26:20;20.43;;;4.90;;
179;SDS011;78;48.788;9.010;2023-04-03T13:28:46;18.70;;;4.27;;
179;SDS011;78;48.788;9.010;2023-04-03T13:36:19;20.87;;;4.60;;
179;SDS011;78;48.788;9.010;2023-04-03T13:38:46;19.10;;;4.40;;
179;SDS011;78;48.788;9.010;2023-04-03T13:41:29;19.00;;;4.50;;
179;SDS011;78;48.788;9.010;2023-04-03T13:43:55;17.87;;;4.47;;
179;SDS011;78;48.788;9.010;2023-04-03T13:46:27;19.47;;;4.50;;
179;SDS011;78;48.788;9.010;2023-04-03T13:48:54;17.40;;;4.50;;
179;SDS011;78;48.788;9.010;2023-04-03T13:51:24;18.23;;;4.50;;
179;SDS011;78;48.788;9.010;2023-04-03T13:54:34;18.33;;;4.47;;
179;SDS011;78;48.788;9.010;2023-04-03T13:56:39;19.83;;;4.10;;
179;SDS011;78;48.788;9.010;2023-04-03T14:04:20;17.97;;;4.37;;
179;SDS011;78;48.788;9.010;2023-04-03T14:06:46;20.20;;;4.27;;
179;SDS011;78;48.788;9.010;2023-04-03T14:09:13;19.50;;;5.00;;
179;SDS011;78;48.788;9.010;2023-04-03T14:11:39;18.83;;;4.70;;
179;SDS011;78;48.788;9.010;2023-04-03T14:14:09;18.77;;;4.60;;
179;SDS011;78;48.788;9.010;2023-04-03T14:16:38;23.93;;;4.63;;
179;SDS011;78;48.788;9.010;2023-04-03T14:19:06;18.07;;;4.47;;
179;SDS011;78;48.788;9.010;2023-04-03T14:21:32;17.43;;;4.10;;
179;SDS011;78;48.788;9.010;2023-04-03T14:23:58;16.90;;;3.80;;
179;SDS011;78;48.788;9.010;2023-04-03T14:26:24;16.80;;;3.93;;
179;SDS011;78;48.788;9.010;2023-04-03T14:28:52;20.93;;;4.20;;
179;SDS011;78;48.788;9.010;2023-04-03T14:31:19;18.53;;;4.30;;
179;SDS011;78;48.788;9.010;2023-04-03T14:33:46;18.43;;;4.20;;
179;SDS011;78;48.788;9.010;2023-04-03T14:36:16;17.70;;;4.00;;
179;SDS011;78;48.788;9.010;2023-04-03T14:38:44;20.13;;;4.83;;
179;SDS011;78;48.788;9.010;2023-04-03T14:41:14;17.80;;;4.50;;
179;SDS011;78;48.788;9.010;2023-04-03T14:43:40;18.00;;;4.23;;
179;SDS011;78;48.788;9.010;2023-04-03T14:46:10;19.30;;;4.73;;
179;SDS011;78;48.788;9.010;2023-04-03T14:48:38;18.90;;;4.50;;
179;SDS011;78;48.788;9.010;2023-04-03T14:51:04;19.60;;;4.83;;
179;SDS011;78;48.788;9.010;2023-04-03T14:53:31;18.70;;;4.10;;
179;SDS011;78;48.788;9.010;2023-04-03T14:55:57;18.97;;;4.47;;
179;SDS011;78;48.788;9.010;2023-04-03T14:58:23;17.73;;;4.27;;
179;SDS011;78;48.788;9.010;2023-04-03T15:00:49;17.67;;;4.33;;
179;SDS011;78;48.788;9.010;2023-04-03T15:03:17;19.17;;;4.47;;
179;SDS011;78;48.788;9.010;2023-04-03T15:05:44;19.87;;;4.73;;
179;SDS011;78;48.788;9.010;2023-04-03T15:08:18;18.83;;;4.40;;
179;SDS011;78;48.788;9.010;2023-04-03T15:10:45;20.50;;;4.33;;
179;SDS011;78;48.788;9.010;2023-04-03T15:13:11;17.60;;;4.23;;
179;SDS011;78;48.788;9.010;2023-04-03T15:15:39;18.37;;;4.23;;
179;SDS011;78;48.788;9.010;2023-04-03T15:18:05;18.20;;;3.73;;
179;SDS011;78;48.788;9.010;2023-04-03T15:20:33;16.63;;;3.60;;
179;SDS011;78;48.788;9.010;2023-04-03T15:23:00;17.17;;;3.80;;
179;SDS011;78;48.788;9.010;2023-04-03T15:25:26;24.63;;;4.03;;
179;SDS011;78;48.788;9.010;2023-04-03T15:27:53;16.80;;;3.80;;
179;SDS011;78;48.788;9.010;2023-04-03T15:30:20;16.30;;;3.77;;
179;SDS011;78;48.788;9.010;2023-04-03T15:32:46;19.00;;;4.37;;
179;SDS011;78;48.788;9.010;2023-04-03T15:35:13;17.37;;;3.90;;
179;SDS011;78;48.788;9.010;2023-04-03T15:37:39;18.43;;;3.80;;
179;SDS011;78;48.788;9.010;2023-04-03T15:40:05;17.50;;;3.93;;
179;SDS011;78;48.788;9.010;2023-04-03T15:42:31;19.63;;;4.20;;
179;SDS011;78;48.788;9.010;2023-04-03T15:44:57;17.60;;;4.30;;
179;SDS011;78;48.788;9.010;2023-04-03T15:47:24;16.83;;;3.67;;
179;SDS011;78;48.788;9.010;2023-04-03T15:49:50;17.93;;;4.27;;
179;SDS011;78;48.788;9.010;2023-04-03T15:52:16;20.47;;;5.13;;
179;SDS011;78;48.788;9.010;2023-04-03T15:54:42;31.80;;;11.30;;
179;SDS011;78;48.788;9.010;2023-04-03T15:57:08;19.47;;;4.90;;
179;SDS011;78;48.788;9.010;2023-04-03T15:59:35;19.27;;;5.40;;
179;SDS011;78;48.788;9.010;2023-04-03T16:02:01;21.77;;;6.47;;
179;SDS011;78;48.788;9.010;2023-04-03T16:04:29;18.50;;;4.57;;
179;SDS011;78;48.788;9.010;2023-04-03T16:06:56;17.20;;;4.47;;
179;SDS011;78;48.788;9.010;2023-04-03T16:09:22;18.47;;;4.27;;
179;SDS011;78;48.788;9.010;2023-04-03T16:11:48;17.83;;;4.33;;
179;SDS011;78;48.788;9.010;2023-04-03T16:14:15;20.40;;;5.03;;
179;SDS011;78;48.788;9.010;2023-04-03T16:16:41;20.37;;;4.20;;
179;SDS011;78;48.788;9.010;2023-04-03T16:19:07;18.67;;;4.17;;
179;SDS011;78;48.788;9.010;2023-04-03T16:21:33;16.77;;;3.93;;
179;SDS011;78;48.788;9.010;2023-04-03T16:23:59;21.00;;;4.17;;
179;SDS011;78;48.788;9.010;2023-04-03T16:26:26;17.43;;;4.40;;
179;SDS011;78;48.788;9.010;2023-04-03T16:28:53;18.40;;;3.67;;
179;SDS011;78;48.788;9.010;2023-04-03T16:31:19;20.10;;;6.10;;
179;SDS011;78;48.788;9.010;2023-04-03T16:33:46;18.33;;;4.07;;
179;SDS011;78;48.788;9.010;2023-04-03T16:36:12;17.20;;;4.27;;
179;SDS011;78;48.788;9.010;2023-04-03T16:38:38;17.63;;;4.03;;
179;SDS011;78;48.788;9.010;2023-04-03T16:41:04;17.33;;;4.20;;
179;SDS011;78;48.788;9.010;2023-04-03T16:43:31;19.63;;;4.00;;
179;SDS011;78;48.788;9.010;2023-04-03T16:45:57;18.03;;;4.37;;
179;SDS011;78;48.788;9.010;2023-04-03T16:48:23;18.40;;;4.27;;
179;SDS011;78;48.788;9.010;2023-04-03T16:50:50;19.13;;;4.57;;
179;SDS011;78;48.788;9.010;2023-04-03T16:53:18;20.83;;;4.87;;
179;SDS011;78;48.788;9.010;2023-04-03T16:55:44;20.63;;;5.30;;
179;SDS011;78;48.788;9.010;2023-04-03T16:58:10;20.90;;;4.80;;
179;SDS011;78;48.788;9.010;2023-04-03T17:00:36;19.20;;;4.60;;
179;SDS011;78;48.788;9.010;2023-04-03T17:03:02;23.00;;;4.67;;
179;SDS011;78;48.788;9.010;2023-04-03T17:05:29;22.10;;;5.37;;
179;SDS011;78;48.788;9.010;2023-04-03T17:07:55;20.27;;;5.03;;
179;SDS011;78;48.788;9.010;2023-04-03T17:10:21;18.17;;;4.70;;
179;SDS011;78;48.788;9.010;2023-04-03T17:12:47;20.17;;;4.87;;
179;SDS011;78;48.788;9.010;2023-04-03T17:15:13;20.70;;;4.93;;
179;SDS011;78;48.788;9.010;2023-04-03T17:17:39;23.87;;;5.40;;
179;SDS011;78;48.788;9.010;2023-04-03T17:20:05;18.53;;;4.63;;
179;SDS011;78;48.788;9.010;2023-04-03T17:22:32;22.93;;;5.23;;
179;SDS011;78;48.788;9.010;2023-04-03T17:24:58;18.90;;;4.87;;
179;SDS011;78;48.788;9.010;2023-04-03T17:27:24;19.37;;;5.00;;